sensor_id;sensor_type;location;lat;lon;timestamp;P1;durP1;ratioP1;P2;durP2;ratioP2
18425;SDS011;9340;48.756;9.226;2022-12-16T00:00:11;32.43;;;22.90;;
18425;SDS011;9340;48.756;9.226;2022-12-16T00:02:41;33.67;;;24.17;;
18425;SDS011;9340;48.756;9.226;2022-12-16T00:05:08;36.60;;;24.70;;
18425;SDS011;9340;48.756;9.226;2022-12-16T00:07:35;35.90;;;24.93;;
18425;SDS011;9340;48.756;9.226;2022-12-16T00:10:02;33.07;;;22.60;;
18425;SDS011;9340;48.756;9.226;2022-12-16T00:12:29;35.57;;;24.83;;
18425;SDS011;9340;48.756;9.226;2022-12-16T00:14:56;32.17;;;23.77;;
18425;SDS011;9340;48.756;9.226;2022-12-16T00:17:23;35.17;;;24.17;;
18425;SDS011;9340;48.756;9.226;2022-12-16T00:19:51;31.57;;;22.53;;
18425;SDS011;9340;48.756;9.226;2022-12-16T00:22:18;31.67;;;22.53;;
18425;SDS011;9340;48.756;9.226;2022-12-16T00:24:45;37.80;;;24.87;;
18425;SDS011;9340;48.756;9.226;2022-12-16T00:27:12;33.87;;;24.17;;
18425;SDS011;9340;48.756;9.226;2022-12-16T00:29:39;34.20;;;25.10;;
18425;SDS011;9340;48.756;9.226;2022-12-16T00:32:06;37.23;;;24.17;;
18425;SDS011;9340;48.756;9.226;2022-12-16T00:34:33;32.73;;;23.50;;
18425;SDS011;9340;48.756;9.226;2022-12-16T00:37:01;36.13;;;25.07;;
18425;SDS011;9340;48.756;9.226;2022-12-16T00:39:28;39.27;;;25.23;;
18425;SDS011;9340;48.756;9.226;2022-12-16T00:41:55;33.73;;;24.17;;
18425;SDS011;9340;48.756;9.226;2022-12-16T00:44:21;34.33;;;24.30;;
18425;SDS011;9340;48.756;9.226;2022-12-16T00:46:48;35.53;;;24.83;;
18425;SDS011;9340;48.756;9.226;2022-12-16T00:49:15;35.43;;;25.20;;
18425;SDS011;9340;48.756;9.226;2022-12-16T00:51:42;36.00;;;23.90;;
18425;SDS011;9340;48.756;9.226;2022-12-16T00:54:10;38.63;;;26.33;;
18425;SDS011;9340;48.756;9.226;2022-12-16T00:56:37;35.77;;;25.00;;
18425;SDS011;9340;48.756;9.226;2022-12-16T00:59:04;38.53;;;25.83;;
18425;SDS011;9340;48.756;9.226;2022-12-16T01:01:31;35.60;;;24.20;;
18425;SDS011;9340;48.756;9.226;2022-12-16T01:03:58;35.60;;;24.40;;
18425;SDS011;9340;48.756;9.226;2022-12-16T01:06:25;35.47;;;24.87;;
18425;SDS011;9340;48.756;9.226;2022-12-16T01:08:51;37.73;;;26.17;;
18425;SDS011;9340;48.756;9.226;2022-12-16T01:11:20;39.17;;;25.47;;
18425;SDS011;9340;48.756;9.226;2022-12-16T01:13:48;32.13;;;23.27;;
18425;SDS011;9340;48.756;9.226;2022-12-16T01:16:16;36.63;;;25.17;;
18425;SDS011;9340;48.756;9.226;2022-12-16T01:18:43;35.40;;;24.30;;
18425;SDS011;9340;48.756;9.226;2022-12-16T01:21:10;36.17;;;25.33;;
18425;SDS011;9340;48.756;9.226;2022-12-16T01:23:39;32.33;;;23.97;;
18425;SDS011;9340;48.756;9.226;2022-12-16T01:26:06;35.53;;;24.87;;
18425;SDS011;9340;48.756;9.226;2022-12-16T01:28:34;36.53;;;24.70;;
18425;SDS011;9340;48.756;9.226;2022-12-16T01:31:01;34.57;;;23.60;;
18425;SDS011;9340;48.756;9.226;2022-12-16T01:33:28;38.93;;;23.90;;
18425;SDS011;9340;48.756;9.226;2022-12-16T01:35:59;32.47;;;22.63;;
18425;SDS011;9340;48.756;9.226;2022-12-16T01:38:28;36.77;;;25.47;;
18425;SDS011;9340;48.756;9.226;2022-12-16T01:40:55;32.97;;;23.87;;
18425;SDS011;9340;48.756;9.226;2022-12-16T01:43:23;34.70;;;24.70;;
18425;SDS011;9340;48.756;9.226;2022-12-16T01:45:53;34.23;;;24.70;;
18425;SDS011;9340;48.756;9.226;2022-12-16T01:48:27;34.47;;;24.67;;
18425;SDS011;9340;48.756;9.226;2022-12-16T01:51:01;36.43;;;25.10;;
18425;SDS011;9340;48.756;9.226;2022-12-16T01:53:38;40.10;;;25.73;;
18425;SDS011;9340;48.756;9.226;2022-12-16T01:56:08;39.90;;;26.30;;
18425;SDS011;9340;48.756;9.226;2022-12-16T01:58:37;36.57;;;24.70;;
18425;SDS011;9340;48.756;9.226;2022-12-16T02:01:09;37.17;;;26.03;;
18425;SDS011;9340;48.756;9.226;2022-12-16T02:03:36;38.27;;;25.13;;
18425;SDS011;9340;48.756;9.226;2022-12-16T02:06:04;32.70;;;23.40;;
18425;SDS011;9340;48.756;9.226;2022-12-16T02:08:32;35.60;;;24.90;;
18425;SDS011;9340;48.756;9.226;2022-12-16T02:16:54;36.83;;;24.30;;
18425;SDS011;9340;48.756;9.226;2022-12-16T02:19:33;35.63;;;24.13;;
18425;SDS011;9340;48.756;9.226;2022-12-16T02:22:26;32.13;;;22.23;;
18425;SDS011;9340;48.756;9.226;2022-12-16T02:25:11;34.33;;;24.27;;
18425;SDS011;9340;48.756;9.226;2022-12-16T02:28:04;34.77;;;24.03;;
18425;SDS011;9340;48.756;9.226;2022-12-16T02:30:54;34.20;;;24.17;;
18425;SDS011;9340;48.756;9.226;2022-12-16T02:33:41;32.97;;;23.97;;
18425;SDS011;9340;48.756;9.226;2022-12-16T02:36:18;37.80;;;25.43;;
18425;SDS011;9340;48.756;9.226;2022-12-16T02:38:54;40.13;;;26.70;;
18425;SDS011;9340;48.756;9.226;2022-12-16T02:41:24;34.30;;;25.10;;
18425;SDS011;9340;48.756;9.226;2022-12-16T02:44:00;37.23;;;24.70;;
18425;SDS011;9340;48.756;9.226;2022-12-16T02:46:31;34.60;;;23.70;;
18425;SDS011;9340;48.756;9.226;2022-12-16T02:49:04;37.83;;;23.97;;
18425;SDS011;9340;48.756;9.226;2022-12-16T02:51:32;32.50;;;23.63;;
18425;SDS011;9340;48.756;9.226;2022-12-16T02:54:03;33.70;;;23.47;;
18425;SDS011;9340;48.756;9.226;2022-12-16T02:56:37;34.00;;;23.83;;
18425;SDS011;9340;48.756;9.226;2022-12-16T02:59:14;31.43;;;22.43;;
18425;SDS011;9340;48.756;9.226;2022-12-16T03:02:01;29.50;;;22.00;;
18425;SDS011;9340;48.756;9.226;2022-12-16T03:04:39;30.13;;;21.67;;
18425;SDS011;9340;48.756;9.226;2022-12-16T03:07:11;27.77;;;20.87;;
18425;SDS011;9340;48.756;9.226;2022-12-16T03:09:40;34.13;;;23.87;;
18425;SDS011;9340;48.756;9.226;2022-12-16T03:12:09;33.73;;;22.37;;
18425;SDS011;9340;48.756;9.226;2022-12-16T03:14:41;32.17;;;22.50;;
18425;SDS011;9340;48.756;9.226;2022-12-16T03:17:13;30.43;;;21.40;;
18425;SDS011;9340;48.756;9.226;2022-12-16T03:19:42;32.83;;;22.33;;
18425;SDS011;9340;48.756;9.226;2022-12-16T03:22:20;30.53;;;21.20;;
18425;SDS011;9340;48.756;9.226;2022-12-16T03:24:50;34.20;;;22.07;;
18425;SDS011;9340;48.756;9.226;2022-12-16T03:27:17;31.00;;;22.47;;
18425;SDS011;9340;48.756;9.226;2022-12-16T03:29:50;37.53;;;23.73;;
18425;SDS011;9340;48.756;9.226;2022-12-16T03:32:26;32.40;;;23.27;;
18425;SDS011;9340;48.756;9.226;2022-12-16T03:35:00;32.37;;;21.63;;
18425;SDS011;9340;48.756;9.226;2022-12-16T03:37:33;31.20;;;21.77;;
18425;SDS011;9340;48.756;9.226;2022-12-16T03:40:02;31.97;;;22.80;;
18425;SDS011;9340;48.756;9.226;2022-12-16T03:42:32;32.87;;;22.67;;
18425;SDS011;9340;48.756;9.226;2022-12-16T03:45:01;31.73;;;22.97;;
18425;SDS011;9340;48.756;9.226;2022-12-16T03:47:31;31.40;;;22.70;;
18425;SDS011;9340;48.756;9.226;2022-12-16T03:49:59;29.73;;;21.50;;
18425;SDS011;9340;48.756;9.226;2022-12-16T03:52:26;34.20;;;23.10;;
18425;SDS011;9340;48.756;9.226;2022-12-16T03:54:53;30.90;;;22.57;;
18425;SDS011;9340;48.756;9.226;2022-12-16T03:57:20;29.73;;;20.83;;
18425;SDS011;9340;48.756;9.226;2022-12-16T03:59:47;29.60;;;20.50;;
18425;SDS011;9340;48.756;9.226;2022-12-16T04:02:13;26.73;;;20.13;;
18425;SDS011;9340;48.756;9.226;2022-12-16T04:04:42;27.63;;;21.07;;
18425;SDS011;9340;48.756;9.226;2022-12-16T04:07:09;27.77;;;20.60;;
18425;SDS011;9340;48.756;9.226;2022-12-16T04:09:52;29.60;;;20.33;;
18425;SDS011;9340;48.756;9.226;2022-12-16T04:12:20;29.07;;;21.07;;
18425;SDS011;9340;48.756;9.226;2022-12-16T04:15:04;31.83;;;22.93;;
18425;SDS011;9340;48.756;9.226;2022-12-16T04:17:49;29.30;;;20.73;;
18425;SDS011;9340;48.756;9.226;2022-12-16T04:20:38;28.03;;;18.80;;
18425;SDS011;9340;48.756;9.226;2022-12-16T04:23:25;31.40;;;20.43;;
18425;SDS011;9340;48.756;9.226;2022-12-16T04:26:12;27.97;;;19.63;;
18425;SDS011;9340;48.756;9.226;2022-12-16T04:28:41;26.90;;;20.00;;
18425;SDS011;9340;48.756;9.226;2022-12-16T04:31:08;30.33;;;19.33;;
18425;SDS011;9340;48.756;9.226;2022-12-16T04:33:35;28.87;;;19.97;;
18425;SDS011;9340;48.756;9.226;2022-12-16T04:36:25;26.93;;;19.63;;
18425;SDS011;9340;48.756;9.226;2022-12-16T04:39:09;26.40;;;18.80;;
18425;SDS011;9340;48.756;9.226;2022-12-16T04:41:54;28.70;;;20.03;;
18425;SDS011;9340;48.756;9.226;2022-12-16T04:44:44;24.50;;;17.53;;
18425;SDS011;9340;48.756;9.226;2022-12-16T04:47:29;28.03;;;18.60;;
18425;SDS011;9340;48.756;9.226;2022-12-16T04:50:13;28.20;;;18.53;;
18425;SDS011;9340;48.756;9.226;2022-12-16T04:53:09;26.43;;;18.60;;
18425;SDS011;9340;48.756;9.226;2022-12-16T04:55:59;25.10;;;18.03;;
18425;SDS011;9340;48.756;9.226;2022-12-16T04:58:44;24.13;;;17.47;;
18425;SDS011;9340;48.756;9.226;2022-12-16T05:01:28;29.57;;;17.60;;
18425;SDS011;9340;48.756;9.226;2022-12-16T05:04:14;25.17;;;17.70;;
18425;SDS011;9340;48.756;9.226;2022-12-16T05:06:58;26.83;;;19.07;;
18425;SDS011;9340;48.756;9.226;2022-12-16T05:09:40;28.80;;;18.47;;
18425;SDS011;9340;48.756;9.226;2022-12-16T05:12:21;24.23;;;19.03;;
18425;SDS011;9340;48.756;9.226;2022-12-16T05:15:06;24.40;;;17.77;;
18425;SDS011;9340;48.756;9.226;2022-12-16T05:17:50;25.00;;;17.60;;
18425;SDS011;9340;48.756;9.226;2022-12-16T05:20:34;24.60;;;16.50;;
18425;SDS011;9340;48.756;9.226;2022-12-16T05:23:19;22.20;;;16.90;;
18425;SDS011;9340;48.756;9.226;2022-12-16T05:26:05;23.80;;;18.10;;
18425;SDS011;9340;48.756;9.226;2022-12-16T05:28:49;25.80;;;16.73;;
18425;SDS011;9340;48.756;9.226;2022-12-16T05:31:33;23.10;;;15.97;;
18425;SDS011;9340;48.756;9.226;2022-12-16T05:34:18;23.63;;;16.00;;
18425;SDS011;9340;48.756;9.226;2022-12-16T05:37:02;22.50;;;15.73;;
18425;SDS011;9340;48.756;9.226;2022-12-16T05:39:47;24.90;;;18.60;;
18425;SDS011;9340;48.756;9.226;2022-12-16T05:45:19;23.53;;;17.23;;
18425;SDS011;9340;48.756;9.226;2022-12-16T05:48:03;23.90;;;17.70;;
18425;SDS011;9340;48.756;9.226;2022-12-16T05:50:48;21.97;;;15.83;;
18425;SDS011;9340;48.756;9.226;2022-12-16T05:53:33;24.20;;;16.67;;
18425;SDS011;9340;48.756;9.226;2022-12-16T05:56:17;23.27;;;16.57;;
18425;SDS011;9340;48.756;9.226;2022-12-16T05:59:03;22.30;;;15.63;;
18425;SDS011;9340;48.756;9.226;2022-12-16T06:01:47;24.23;;;16.40;;
18425;SDS011;9340;48.756;9.226;2022-12-16T06:04:31;23.43;;;16.40;;
18425;SDS011;9340;48.756;9.226;2022-12-16T06:07:15;23.37;;;17.30;;
18425;SDS011;9340;48.756;9.226;2022-12-16T06:09:59;25.50;;;16.67;;
18425;SDS011;9340;48.756;9.226;2022-12-16T06:12:47;20.20;;;16.03;;
18425;SDS011;9340;48.756;9.226;2022-12-16T06:15:38;20.00;;;15.67;;
18425;SDS011;9340;48.756;9.226;2022-12-16T06:18:22;21.67;;;15.53;;
18425;SDS011;9340;48.756;9.226;2022-12-16T06:21:06;24.97;;;16.03;;
18425;SDS011;9340;48.756;9.226;2022-12-16T06:23:50;19.70;;;14.57;;
18425;SDS011;9340;48.756;9.226;2022-12-16T06:26:34;22.60;;;15.17;;
18425;SDS011;9340;48.756;9.226;2022-12-16T06:29:19;20.50;;;14.43;;
18425;SDS011;9340;48.756;9.226;2022-12-16T06:32:04;18.10;;;13.17;;
18425;SDS011;9340;48.756;9.226;2022-12-16T06:34:48;17.57;;;13.73;;
18425;SDS011;9340;48.756;9.226;2022-12-16T06:37:32;21.17;;;14.13;;
18425;SDS011;9340;48.756;9.226;2022-12-16T06:40:17;21.90;;;15.40;;
18425;SDS011;9340;48.756;9.226;2022-12-16T06:43:01;19.80;;;14.43;;
18425;SDS011;9340;48.756;9.226;2022-12-16T06:45:45;18.33;;;14.47;;
18425;SDS011;9340;48.756;9.226;2022-12-16T06:48:30;18.37;;;13.50;;
18425;SDS011;9340;48.756;9.226;2022-12-16T06:51:15;21.33;;;14.87;;
18425;SDS011;9340;48.756;9.226;2022-12-16T06:53:59;18.03;;;14.17;;
18425;SDS011;9340;48.756;9.226;2022-12-16T06:56:43;18.63;;;13.33;;
18425;SDS011;9340;48.756;9.226;2022-12-16T06:59:28;16.63;;;12.73;;
18425;SDS011;9340;48.756;9.226;2022-12-16T07:02:13;18.93;;;14.07;;
18425;SDS011;9340;48.756;9.226;2022-12-16T07:04:58;20.97;;;14.40;;
18425;SDS011;9340;48.756;9.226;2022-12-16T07:07:45;19.50;;;14.57;;
18425;SDS011;9340;48.756;9.226;2022-12-16T07:10:31;20.73;;;14.47;;
18425;SDS011;9340;48.756;9.226;2022-12-16T07:13:15;26.33;;;14.27;;
18425;SDS011;9340;48.756;9.226;2022-12-16T07:16:00;20.10;;;13.83;;
18425;SDS011;9340;48.756;9.226;2022-12-16T07:18:44;19.13;;;14.37;;
18425;SDS011;9340;48.756;9.226;2022-12-16T07:21:29;20.20;;;14.73;;
18425;SDS011;9340;48.756;9.226;2022-12-16T07:24:25;21.43;;;14.03;;
18425;SDS011;9340;48.756;9.226;2022-12-16T07:27:09;18.10;;;12.90;;
18425;SDS011;9340;48.756;9.226;2022-12-16T07:29:54;18.70;;;12.60;;
18425;SDS011;9340;48.756;9.226;2022-12-16T07:32:39;18.30;;;13.57;;
18425;SDS011;9340;48.756;9.226;2022-12-16T07:35:23;18.07;;;12.87;;
18425;SDS011;9340;48.756;9.226;2022-12-16T07:38:08;18.23;;;14.00;;
18425;SDS011;9340;48.756;9.226;2022-12-16T07:40:52;17.57;;;13.10;;
18425;SDS011;9340;48.756;9.226;2022-12-16T07:43:36;17.73;;;13.13;;
18425;SDS011;9340;48.756;9.226;2022-12-16T07:46:20;19.50;;;14.60;;
18425;SDS011;9340;48.756;9.226;2022-12-16T07:49:05;17.70;;;14.00;;
18425;SDS011;9340;48.756;9.226;2022-12-16T07:51:49;18.03;;;13.80;;
18425;SDS011;9340;48.756;9.226;2022-12-16T07:54:35;19.83;;;13.70;;
18425;SDS011;9340;48.756;9.226;2022-12-16T07:57:19;18.93;;;14.10;;
18425;SDS011;9340;48.756;9.226;2022-12-16T08:00:04;19.40;;;14.33;;
18425;SDS011;9340;48.756;9.226;2022-12-16T08:02:51;18.93;;;13.03;;
18425;SDS011;9340;48.756;9.226;2022-12-16T08:05:36;19.37;;;12.77;;
18425;SDS011;9340;48.756;9.226;2022-12-16T08:08:20;22.23;;;13.67;;
18425;SDS011;9340;48.756;9.226;2022-12-16T08:11:06;18.77;;;13.93;;
18425;SDS011;9340;48.756;9.226;2022-12-16T08:13:50;18.60;;;12.10;;
18425;SDS011;9340;48.756;9.226;2022-12-16T08:16:34;18.83;;;13.30;;
18425;SDS011;9340;48.756;9.226;2022-12-16T08:19:18;18.97;;;13.83;;
18425;SDS011;9340;48.756;9.226;2022-12-16T08:22:02;18.20;;;12.37;;
18425;SDS011;9340;48.756;9.226;2022-12-16T08:24:46;17.03;;;12.20;;
18425;SDS011;9340;48.756;9.226;2022-12-16T08:27:32;17.03;;;12.77;;
18425;SDS011;9340;48.756;9.226;2022-12-16T08:30:16;17.40;;;12.80;;
18425;SDS011;9340;48.756;9.226;2022-12-16T08:33:00;16.53;;;12.53;;
18425;SDS011;9340;48.756;9.226;2022-12-16T08:35:44;16.17;;;12.47;;
18425;SDS011;9340;48.756;9.226;2022-12-16T08:38:29;15.67;;;12.00;;
18425;SDS011;9340;48.756;9.226;2022-12-16T08:41:13;15.03;;;11.60;;
18425;SDS011;9340;48.756;9.226;2022-12-16T08:43:59;15.17;;;12.23;;
18425;SDS011;9340;48.756;9.226;2022-12-16T08:46:43;16.87;;;10.97;;
18425;SDS011;9340;48.756;9.226;2022-12-16T08:49:27;19.57;;;11.70;;
18425;SDS011;9340;48.756;9.226;2022-12-16T08:52:11;15.73;;;12.00;;
18425;SDS011;9340;48.756;9.226;2022-12-16T08:54:55;15.23;;;11.13;;
18425;SDS011;9340;48.756;9.226;2022-12-16T08:57:39;14.03;;;10.27;;
18425;SDS011;9340;48.756;9.226;2022-12-16T09:00:25;12.83;;;9.60;;
18425;SDS011;9340;48.756;9.226;2022-12-16T09:03:09;12.93;;;10.20;;
18425;SDS011;9340;48.756;9.226;2022-12-16T09:05:56;13.60;;;10.43;;
18425;SDS011;9340;48.756;9.226;2022-12-16T09:08:40;13.70;;;9.90;;
18425;SDS011;9340;48.756;9.226;2022-12-16T09:11:25;15.20;;;9.73;;
18425;SDS011;9340;48.756;9.226;2022-12-16T09:14:09;14.87;;;10.60;;
18425;SDS011;9340;48.756;9.226;2022-12-16T09:16:55;13.23;;;9.60;;
18425;SDS011;9340;48.756;9.226;2022-12-16T09:19:39;11.87;;;9.50;;
18425;SDS011;9340;48.756;9.226;2022-12-16T09:22:23;13.97;;;10.83;;
18425;SDS011;9340;48.756;9.226;2022-12-16T09:25:07;13.00;;;10.03;;
18425;SDS011;9340;48.756;9.226;2022-12-16T09:27:52;14.67;;;10.67;;
18425;SDS011;9340;48.756;9.226;2022-12-16T09:30:36;12.37;;;9.60;;
18425;SDS011;9340;48.756;9.226;2022-12-16T09:33:22;14.63;;;10.73;;
18425;SDS011;9340;48.756;9.226;2022-12-16T09:36:06;12.17;;;9.00;;
18425;SDS011;9340;48.756;9.226;2022-12-16T09:38:51;11.93;;;9.20;;
18425;SDS011;9340;48.756;9.226;2022-12-16T09:41:38;11.70;;;9.63;;
18425;SDS011;9340;48.756;9.226;2022-12-16T09:44:29;19.63;;;15.57;;
18425;SDS011;9340;48.756;9.226;2022-12-16T09:47:26;21.57;;;18.63;;
18425;SDS011;9340;48.756;9.226;2022-12-16T09:50:19;13.57;;;10.87;;
18425;SDS011;9340;48.756;9.226;2022-12-16T09:53:08;12.53;;;9.83;;
18425;SDS011;9340;48.756;9.226;2022-12-16T09:55:55;13.17;;;10.07;;
18425;SDS011;9340;48.756;9.226;2022-12-16T09:58:42;12.20;;;9.93;;
18425;SDS011;9340;48.756;9.226;2022-12-16T10:01:35;10.60;;;9.23;;
18425;SDS011;9340;48.756;9.226;2022-12-16T10:04:20;10.40;;;8.40;;
18425;SDS011;9340;48.756;9.226;2022-12-16T10:07:07;11.50;;;9.00;;
18425;SDS011;9340;48.756;9.226;2022-12-16T10:09:59;11.60;;;9.60;;
18425;SDS011;9340;48.756;9.226;2022-12-16T10:12:51;11.53;;;8.97;;
18425;SDS011;9340;48.756;9.226;2022-12-16T10:15:42;12.17;;;8.33;;
18425;SDS011;9340;48.756;9.226;2022-12-16T10:18:35;12.87;;;8.53;;
18425;SDS011;9340;48.756;9.226;2022-12-16T10:21:29;11.03;;;8.97;;
18425;SDS011;9340;48.756;9.226;2022-12-16T10:24:24;10.93;;;8.73;;
18425;SDS011;9340;48.756;9.226;2022-12-16T10:27:14;15.33;;;10.93;;
18425;SDS011;9340;48.756;9.226;2022-12-16T10:30:05;12.37;;;8.93;;
18425;SDS011;9340;48.756;9.226;2022-12-16T10:32:54;11.87;;;9.13;;
18425;SDS011;9340;48.756;9.226;2022-12-16T10:35:41;13.67;;;8.83;;
18425;SDS011;9340;48.756;9.226;2022-12-16T10:38:34;12.13;;;8.53;;
18425;SDS011;9340;48.756;9.226;2022-12-16T10:41:25;11.40;;;8.33;;
18425;SDS011;9340;48.756;9.226;2022-12-16T10:44:14;9.37;;;8.30;;
18425;SDS011;9340;48.756;9.226;2022-12-16T10:47:05;10.93;;;8.93;;
18425;SDS011;9340;48.756;9.226;2022-12-16T10:49:49;10.30;;;7.97;;
18425;SDS011;9340;48.756;9.226;2022-12-16T10:52:42;12.40;;;9.07;;
18425;SDS011;9340;48.756;9.226;2022-12-16T10:55:34;9.87;;;8.27;;
18425;SDS011;9340;48.756;9.226;2022-12-16T10:58:31;12.80;;;9.13;;
18425;SDS011;9340;48.756;9.226;2022-12-16T11:01:24;11.03;;;8.77;;
18425;SDS011;9340;48.756;9.226;2022-12-16T11:04:29;11.83;;;8.80;;
18425;SDS011;9340;48.756;9.226;2022-12-16T11:07:21;12.50;;;8.17;;
18425;SDS011;9340;48.756;9.226;2022-12-16T11:10:30;10.40;;;7.60;;
18425;SDS011;9340;48.756;9.226;2022-12-16T11:13:18;12.03;;;9.07;;
18425;SDS011;9340;48.756;9.226;2022-12-16T11:16:07;11.57;;;7.87;;
18425;SDS011;9340;48.756;9.226;2022-12-16T11:18:57;12.37;;;9.37;;
18425;SDS011;9340;48.756;9.226;2022-12-16T11:21:42;10.20;;;8.73;;
18425;SDS011;9340;48.756;9.226;2022-12-16T11:24:27;13.23;;;9.73;;
18425;SDS011;9340;48.756;9.226;2022-12-16T11:27:14;11.27;;;8.33;;
18425;SDS011;9340;48.756;9.226;2022-12-16T11:30:14;13.50;;;9.73;;
18425;SDS011;9340;48.756;9.226;2022-12-16T11:33:03;10.77;;;7.93;;
18425;SDS011;9340;48.756;9.226;2022-12-16T11:35:56;12.50;;;8.13;;
18425;SDS011;9340;48.756;9.226;2022-12-16T11:38:48;11.60;;;8.47;;
18425;SDS011;9340;48.756;9.226;2022-12-16T11:41:36;10.40;;;8.37;;
18425;SDS011;9340;48.756;9.226;2022-12-16T11:44:25;10.33;;;8.73;;
18425;SDS011;9340;48.756;9.226;2022-12-16T11:47:14;12.63;;;8.77;;
18425;SDS011;9340;48.756;9.226;2022-12-16T11:50:06;11.03;;;8.07;;
18425;SDS011;9340;48.756;9.226;2022-12-16T11:52:54;9.10;;;7.40;;
18425;SDS011;9340;48.756;9.226;2022-12-16T11:55:40;9.97;;;7.53;;
18425;SDS011;9340;48.756;9.226;2022-12-16T11:58:30;10.17;;;8.20;;
18425;SDS011;9340;48.756;9.226;2022-12-16T12:01:21;11.50;;;8.23;;
18425;SDS011;9340;48.756;9.226;2022-12-16T12:04:10;10.47;;;8.57;;
18425;SDS011;9340;48.756;9.226;2022-12-16T12:07:00;11.73;;;8.47;;
18425;SDS011;9340;48.756;9.226;2022-12-16T12:09:57;10.57;;;7.63;;
18425;SDS011;9340;48.756;9.226;2022-12-16T12:12:46;10.53;;;7.70;;
18425;SDS011;9340;48.756;9.226;2022-12-16T12:15:37;11.03;;;7.70;;
18425;SDS011;9340;48.756;9.226;2022-12-16T12:18:31;20.97;;;16.67;;
18425;SDS011;9340;48.756;9.226;2022-12-16T12:21:23;12.03;;;8.77;;
18425;SDS011;9340;48.756;9.226;2022-12-16T12:24:16;9.17;;;7.13;;
18425;SDS011;9340;48.756;9.226;2022-12-16T12:27:12;9.83;;;7.40;;
18425;SDS011;9340;48.756;9.226;2022-12-16T12:30:04;10.23;;;7.37;;
18425;SDS011;9340;48.756;9.226;2022-12-16T12:32:56;11.13;;;7.97;;
18425;SDS011;9340;48.756;9.226;2022-12-16T12:35:54;10.80;;;8.53;;
18425;SDS011;9340;48.756;9.226;2022-12-16T12:38:45;10.77;;;7.80;;
18425;SDS011;9340;48.756;9.226;2022-12-16T12:41:49;12.60;;;8.07;;
18425;SDS011;9340;48.756;9.226;2022-12-16T12:44:52;9.47;;;7.37;;
18425;SDS011;9340;48.756;9.226;2022-12-16T12:47:46;10.97;;;8.60;;
18425;SDS011;9340;48.756;9.226;2022-12-16T12:50:40;10.40;;;8.30;;
18425;SDS011;9340;48.756;9.226;2022-12-16T12:53:33;12.23;;;7.90;;
18425;SDS011;9340;48.756;9.226;2022-12-16T12:56:25;12.10;;;7.80;;
18425;SDS011;9340;48.756;9.226;2022-12-16T12:59:19;10.10;;;7.50;;
18425;SDS011;9340;48.756;9.226;2022-12-16T13:02:09;12.57;;;9.40;;
18425;SDS011;9340;48.756;9.226;2022-12-16T13:05:00;10.17;;;8.13;;
18425;SDS011;9340;48.756;9.226;2022-12-16T13:07:45;10.63;;;8.33;;
18425;SDS011;9340;48.756;9.226;2022-12-16T13:10:31;9.53;;;8.00;;
18425;SDS011;9340;48.756;9.226;2022-12-16T13:13:31;10.17;;;7.63;;
18425;SDS011;9340;48.756;9.226;2022-12-16T13:19:57;10.87;;;8.00;;
18425;SDS011;9340;48.756;9.226;2022-12-16T13:22:42;11.47;;;8.07;;
18425;SDS011;9340;48.756;9.226;2022-12-16T13:25:35;10.77;;;8.93;;
18425;SDS011;9340;48.756;9.226;2022-12-16T13:28:22;9.67;;;7.70;;
18425;SDS011;9340;48.756;9.226;2022-12-16T13:31:09;11.97;;;8.13;;
18425;SDS011;9340;48.756;9.226;2022-12-16T13:33:54;9.53;;;7.63;;
18425;SDS011;9340;48.756;9.226;2022-12-16T13:36:43;14.17;;;8.30;;
18425;SDS011;9340;48.756;9.226;2022-12-16T13:39:35;9.87;;;6.67;;
18425;SDS011;9340;48.756;9.226;2022-12-16T13:45:32;13.20;;;8.30;;
18425;SDS011;9340;48.756;9.226;2022-12-16T13:48:25;11.77;;;8.83;;
18425;SDS011;9340;48.756;9.226;2022-12-16T13:54:32;11.73;;;8.27;;
18425;SDS011;9340;48.756;9.226;2022-12-16T13:57:22;9.77;;;7.07;;
18425;SDS011;9340;48.756;9.226;2022-12-16T14:00:15;16.07;;;9.00;;
18425;SDS011;9340;48.756;9.226;2022-12-16T14:03:02;10.37;;;8.07;;
18425;SDS011;9340;48.756;9.226;2022-12-16T14:05:52;10.00;;;7.53;;
18425;SDS011;9340;48.756;9.226;2022-12-16T14:08:40;10.53;;;8.07;;
18425;SDS011;9340;48.756;9.226;2022-12-16T14:11:42;10.20;;;8.03;;
18425;SDS011;9340;48.756;9.226;2022-12-16T14:14:34;12.47;;;7.60;;
18425;SDS011;9340;48.756;9.226;2022-12-16T14:17:30;11.83;;;8.50;;
18425;SDS011;9340;48.756;9.226;2022-12-16T14:20:20;11.43;;;7.73;;
18425;SDS011;9340;48.756;9.226;2022-12-16T14:23:13;11.20;;;7.73;;
18425;SDS011;9340;48.756;9.226;2022-12-16T14:26:10;12.50;;;8.80;;
18425;SDS011;9340;48.756;9.226;2022-12-16T14:28:57;10.53;;;7.80;;
18425;SDS011;9340;48.756;9.226;2022-12-16T14:31:44;12.27;;;8.70;;
18425;SDS011;9340;48.756;9.226;2022-12-16T14:34:29;11.73;;;7.83;;
18425;SDS011;9340;48.756;9.226;2022-12-16T14:37:16;10.43;;;7.70;;
18425;SDS011;9340;48.756;9.226;2022-12-16T14:40:03;9.50;;;7.53;;
18425;SDS011;9340;48.756;9.226;2022-12-16T14:43:00;10.97;;;8.03;;
18425;SDS011;9340;48.756;9.226;2022-12-16T14:45:48;9.57;;;7.50;;
18425;SDS011;9340;48.756;9.226;2022-12-16T14:48:30;10.17;;;7.37;;
18425;SDS011;9340;48.756;9.226;2022-12-16T14:51:21;8.53;;;7.00;;
18425;SDS011;9340;48.756;9.226;2022-12-16T14:54:21;10.40;;;7.53;;
18425;SDS011;9340;48.756;9.226;2022-12-16T14:57:10;11.10;;;7.53;;
18425;SDS011;9340;48.756;9.226;2022-12-16T15:00:00;10.10;;;7.30;;
18425;SDS011;9340;48.756;9.226;2022-12-16T15:02:49;9.73;;;7.67;;
18425;SDS011;9340;48.756;9.226;2022-12-16T15:05:35;11.80;;;7.93;;
18425;SDS011;9340;48.756;9.226;2022-12-16T15:08:22;10.80;;;7.80;;
18425;SDS011;9340;48.756;9.226;2022-12-16T15:11:07;11.87;;;7.63;;
18425;SDS011;9340;48.756;9.226;2022-12-16T15:13:55;9.87;;;7.90;;
18425;SDS011;9340;48.756;9.226;2022-12-16T15:16:42;10.37;;;7.60;;
18425;SDS011;9340;48.756;9.226;2022-12-16T15:19:30;10.00;;;7.57;;
18425;SDS011;9340;48.756;9.226;2022-12-16T15:22:19;11.50;;;8.53;;
18425;SDS011;9340;48.756;9.226;2022-12-16T15:25:04;11.07;;;7.80;;
18425;SDS011;9340;48.756;9.226;2022-12-16T15:27:52;11.17;;;7.77;;
18425;SDS011;9340;48.756;9.226;2022-12-16T15:30:38;10.33;;;7.87;;
18425;SDS011;9340;48.756;9.226;2022-12-16T15:33:25;8.47;;;7.27;;
18425;SDS011;9340;48.756;9.226;2022-12-16T15:36:17;9.40;;;7.43;;
18425;SDS011;9340;48.756;9.226;2022-12-16T15:39:08;9.77;;;7.23;;
18425;SDS011;9340;48.756;9.226;2022-12-16T15:41:53;11.30;;;7.70;;
18425;SDS011;9340;48.756;9.226;2022-12-16T15:44:39;10.23;;;7.07;;
18425;SDS011;9340;48.756;9.226;2022-12-16T15:47:31;11.97;;;7.83;;
18425;SDS011;9340;48.756;9.226;2022-12-16T15:50:18;9.33;;;6.87;;
18425;SDS011;9340;48.756;9.226;2022-12-16T15:53:22;11.03;;;8.20;;
18425;SDS011;9340;48.756;9.226;2022-12-16T15:56:16;11.33;;;7.20;;
18425;SDS011;9340;48.756;9.226;2022-12-16T15:59:20;10.93;;;8.57;;
18425;SDS011;9340;48.756;9.226;2022-12-16T16:02:09;11.83;;;7.70;;
18425;SDS011;9340;48.756;9.226;2022-12-16T16:04:58;12.27;;;9.50;;
18425;SDS011;9340;48.756;9.226;2022-12-16T16:07:44;14.20;;;9.23;;
18425;SDS011;9340;48.756;9.226;2022-12-16T16:10:29;11.73;;;8.60;;
18425;SDS011;9340;48.756;9.226;2022-12-16T16:13:13;10.83;;;7.43;;
18425;SDS011;9340;48.756;9.226;2022-12-16T16:15:58;11.07;;;8.30;;
18425;SDS011;9340;48.756;9.226;2022-12-16T16:18:42;10.77;;;8.33;;
18425;SDS011;9340;48.756;9.226;2022-12-16T16:21:27;10.43;;;7.50;;
18425;SDS011;9340;48.756;9.226;2022-12-16T16:24:12;9.53;;;7.67;;
18425;SDS011;9340;48.756;9.226;2022-12-16T16:26:58;10.73;;;8.10;;
18425;SDS011;9340;48.756;9.226;2022-12-16T16:29:45;12.67;;;8.93;;
18425;SDS011;9340;48.756;9.226;2022-12-16T16:32:29;13.60;;;9.00;;